sensor_id;sensor_type;location;lat;lon;timestamp;temperature;humidity
49465;DHT22;35358;49.342;8.802;2022-12-18T00:01:27;-8.30;99.90
49465;DHT22;35358;49.342;8.802;2022-12-18T00:03:54;-8.30;99.90
49465;DHT22;35358;49.342;8.802;2022-12-18T00:06:20;-8.30;99.90
49465;DHT22;35358;49.342;8.802;2022-12-18T00:08:47;-8.30;99.90
49465;DHT22;35358;49.342;8.802;2022-12-18T00:11:16;-8.20;99.90
49465;DHT22;35358;49.342;8.802;2022-12-18T00:13:42;-8.30;99.90
49465;DHT22;35358;49.342;8.802;2022-12-18T00:16:13;-8.40;99.90
49465;DHT22;35358;49.342;8.802;2022-12-18T00:18:39;-8.50;99.90
49465;DHT22;35358;49.342;8.802;2022-12-18T00:21:08;-8.40;99.90
49465;DHT22;35358;49.342;8.802;2022-12-18T00:23:38;-8.60;99.90
49465;DHT22;35358;49.342;8.802;2022-12-18T00:26:06;-8.70;99.90
49465;DHT22;35358;49.342;8.802;2022-12-18T00:28:33;-8.60;99.90
49465;DHT22;35358;49.342;8.802;2022-12-18T00:33:27;-8.60;99.90
49465;DHT22;35358;49.342;8.802;2022-12-18T00:35:53;-8.60;99.90
49465;DHT22;35358;49.342;8.802;2022-12-18T00:38:18;-8.60;99.90
49465;DHT22;35358;49.342;8.802;2022-12-18T00:40:44;-8.50;99.90
49465;DHT22;35358;49.342;8.802;2022-12-18T00:43:09;-8.60;99.90
49465;DHT22;35358;49.342;8.802;2022-12-18T00:45:35;-8.50;99.90
49465;DHT22;35358;49.342;8.802;2022-12-18T00:48:02;-8.40;99.90
49465;DHT22;35358;49.342;8.802;2022-12-18T00:50:27;-8.40;99.90
49465;DHT22;35358;49.342;8.802;2022-12-18T00:52:55;-8.20;99.90
49465;DHT22;35358;49.342;8.802;2022-12-18T00:55:23;-8.30;99.90
49465;DHT22;35358;49.342;8.802;2022-12-18T00:57:51;-8.30;99.90
49465;DHT22;35358;49.342;8.802;2022-12-18T01:00:17;-8.20;99.90
49465;DHT22;35358;49.342;8.802;2022-12-18T01:02:43;-8.20;99.90
49465;DHT22;35358;49.342;8.802;2022-12-18T01:05:12;-8.20;99.90
49465;DHT22;35358;49.342;8.802;2022-12-18T01:07:38;-8.30;99.90
49465;DHT22;35358;49.342;8.802;2022-12-18T01:10:04;-8.20;99.90
49465;DHT22;35358;49.342;8.802;2022-12-18T01:12:30;-8.30;99.90
49465;DHT22;35358;49.342;8.802;2022-12-18T01:14:56;-8.30;99.90
49465;DHT22;35358;49.342;8.802;2022-12-18T01:17:22;-8.30;99.90
49465;DHT22;35358;49.342;8.802;2022-12-18T01:19:47;-8.30;99.90
49465;DHT22;35358;49.342;8.802;2022-12-18T01:22:13;-8.20;99.90
49465;DHT22;35358;49.342;8.802;2022-12-18T01:24:41;-8.20;99.90
49465;DHT22;35358;49.342;8.802;2022-12-18T01:27:06;-8.10;99.90
49465;DHT22;35358;49.342;8.802;2022-12-18T01:29:32;-8.10;99.90
49465;DHT22;35358;49.342;8.802;2022-12-18T01:31:58;-8.10;99.90
49465;DHT22;35358;49.342;8.802;2022-12-18T01:34:28;-8.20;99.90
49465;DHT22;35358;49.342;8.802;2022-12-18T01:36:54;-8.20;99.90
49465;DHT22;35358;49.342;8.802;2022-12-18T01:39:20;-8.30;99.90
49465;DHT22;35358;49.342;8.802;2022-12-18T01:41:48;-8.30;99.90
49465;DHT22;35358;49.342;8.802;2022-12-18T01:47:47;-8.20;99.90
49465;DHT22;35358;49.342;8.802;2022-12-18T01:50:21;-8.20;99.90
49465;DHT22;35358;49.342;8.802;2022-12-18T01:53:37;-8.50;99.90
49465;DHT22;35358;49.342;8.802;2022-12-18T01:55:50;-8.50;99.90
49465;DHT22;35358;49.342;8.802;2022-12-18T01:58:17;-8.50;99.90
49465;DHT22;35358;49.342;8.802;2022-12-18T02:00:45;-8.60;99.90
49465;DHT22;35358;49.342;8.802;2022-12-18T02:03:11;-8.50;99.90
49465;DHT22;35358;49.342;8.802;2022-12-18T02:05:44;-8.40;99.90
49465;DHT22;35358;49.342;8.802;2022-12-18T02:19:16;-8.50;99.90
49465;DHT22;35358;49.342;8.802;2022-12-18T02:27:09;-8.50;99.90
49465;DHT22;35358;49.342;8.802;2022-12-18T02:29:48;-8.40;99.90
49465;DHT22;35358;49.342;8.802;2022-12-18T02:32:29;-8.40;99.90
49465;DHT22;35358;49.342;8.802;2022-12-18T02:34:57;-8.50;99.90
49465;DHT22;35358;49.342;8.802;2022-12-18T02:37:25;-8.70;99.90
49465;DHT22;35358;49.342;8.802;2022-12-18T02:39:55;-8.60;99.90
49465;DHT22;35358;49.342;8.802;2022-12-18T02:42:22;-8.60;99.90
49465;DHT22;35358;49.342;8.802;2022-12-18T02:44:50;-8.60;99.90
49465;DHT22;35358;49.342;8.802;2022-12-18T02:47:19;-8.60;99.90
49465;DHT22;35358;49.342;8.802;2022-12-18T02:55:20;-8.40;99.90
49465;DHT22;35358;49.342;8.802;2022-12-18T02:57:54;-8.40;99.90
49465;DHT22;35358;49.342;8.802;2022-12-18T03:05:33;-8.70;99.90
49465;DHT22;35358;49.342;8.802;2022-12-18T03:08:10;-8.60;99.90
49465;DHT22;35358;49.342;8.802;2022-12-18T03:10:42;-8.50;99.90
49465;DHT22;35358;49.342;8.802;2022-12-18T03:13:17;-8.60;99.90
49465;DHT22;35358;49.342;8.802;2022-12-18T03:15:48;-8.60;99.90
49465;DHT22;35358;49.342;8.802;2022-12-18T03:18:21;-8.40;99.90
49465;DHT22;35358;49.342;8.802;2022-12-18T03:20:49;-8.30;99.90
49465;DHT22;35358;49.342;8.802;2022-12-18T03:23:21;-8.60;99.90
49465;DHT22;35358;49.342;8.802;2022-12-18T03:25:50;-8.60;99.90
49465;DHT22;35358;49.342;8.802;2022-12-18T03:28:21;-8.40;99.90
49465;DHT22;35358;49.342;8.802;2022-12-18T03:30:52;-8.40;99.90
49465;DHT22;35358;49.342;8.802;2022-12-18T03:33:37;-8.40;99.90
49465;DHT22;35358;49.342;8.802;2022-12-18T03:36:04;-8.50;99.90
49465;DHT22;35358;49.342;8.802;2022-12-18T03:38:29;-8.50;99.90
49465;DHT22;35358;49.342;8.802;2022-12-18T03:41:38;-8.40;99.90
49465;DHT22;35358;49.342;8.802;2022-12-18T03:44:12;-8.00;99.90
49465;DHT22;35358;49.342;8.802;2022-12-18T03:47:00;-7.80;99.90
49465;DHT22;35358;49.342;8.802;2022-12-18T03:49:42;-7.70;99.90
49465;DHT22;35358;49.342;8.802;2022-12-18T03:52:17;-7.80;99.90
49465;DHT22;35358;49.342;8.802;2022-12-18T03:54:44;-7.90;99.90
49465;DHT22;35358;49.342;8.802;2022-12-18T03:57:15;-8.00;99.90
49465;DHT22;35358;49.342;8.802;2022-12-18T03:59:43;-8.20;99.90
49465;DHT22;35358;49.342;8.802;2022-12-18T04:02:11;-8.30;99.90
49465;DHT22;35358;49.342;8.802;2022-12-18T04:04:38;-8.30;99.90
49465;DHT22;35358;49.342;8.802;2022-12-18T04:07:05;-8.20;99.90
49465;DHT22;35358;49.342;8.802;2022-12-18T04:09:35;-8.40;99.90
49465;DHT22;35358;49.342;8.802;2022-12-18T04:12:03;-8.60;99.90
49465;DHT22;35358;49.342;8.802;2022-12-18T04:14:31;-8.60;99.90
49465;DHT22;35358;49.342;8.802;2022-12-18T04:17:01;-8.50;99.90
49465;DHT22;35358;49.342;8.802;2022-12-18T04:19:28;-8.40;99.90
49465;DHT22;35358;49.342;8.802;2022-12-18T04:21:53;-8.60;99.90
49465;DHT22;35358;49.342;8.802;2022-12-18T04:24:19;-8.70;99.90
49465;DHT22;35358;49.342;8.802;2022-12-18T04:26:47;-8.60;99.90
49465;DHT22;35358;49.342;8.802;2022-12-18T04:29:12;-8.50;99.90
49465;DHT22;35358;49.342;8.802;2022-12-18T04:31:38;-8.40;99.90
49465;DHT22;35358;49.342;8.802;2022-12-18T04:34:04;-8.40;99.90
49465;DHT22;35358;49.342;8.802;2022-12-18T04:36:30;-8.40;99.90
49465;DHT22;35358;49.342;8.802;2022-12-18T04:38:57;-8.40;99.90
49465;DHT22;35358;49.342;8.802;2022-12-18T04:41:28;-8.40;99.90
49465;DHT22;35358;49.342;8.802;2022-12-18T04:43:53;-8.30;99.90
49465;DHT22;35358;49.342;8.802;2022-12-18T04:46:19;-8.20;99.90
49465;DHT22;35358;49.342;8.802;2022-12-18T04:48:47;-8.00;99.90
49465;DHT22;35358;49.342;8.802;2022-12-18T04:51:13;-7.90;99.90
49465;DHT22;35358;49.342;8.802;2022-12-18T04:53:38;-7.70;99.90
49465;DHT22;35358;49.342;8.802;2022-12-18T04:56:06;-7.50;99.90
49465;DHT22;35358;49.342;8.802;2022-12-18T04:58:32;-7.40;99.90
49465;DHT22;35358;49.342;8.802;2022-12-18T05:00:58;-7.40;99.90
49465;DHT22;35358;49.342;8.802;2022-12-18T05:03:23;-7.50;99.90
49465;DHT22;35358;49.342;8.802;2022-12-18T05:05:51;-7.60;99.90
49465;DHT22;35358;49.342;8.802;2022-12-18T05:08:18;-7.70;99.90
49465;DHT22;35358;49.342;8.802;2022-12-18T05:10:43;-7.80;99.90
49465;DHT22;35358;49.342;8.802;2022-12-18T05:13:09;-7.80;99.90
49465;DHT22;35358;49.342;8.802;2022-12-18T05:15:35;-7.80;99.90
49465;DHT22;35358;49.342;8.802;2022-12-18T05:18:01;-7.80;99.90
49465;DHT22;35358;49.342;8.802;2022-12-18T05:20:27;-7.90;99.90
49465;DHT22;35358;49.342;8.802;2022-12-18T05:22:53;-7.80;99.90
49465;DHT22;35358;49.342;8.802;2022-12-18T05:25:22;-8.00;99.90
49465;DHT22;35358;49.342;8.802;2022-12-18T05:27:48;-8.10;99.90
49465;DHT22;35358;49.342;8.802;2022-12-18T05:30:16;-8.10;99.90
49465;DHT22;35358;49.342;8.802;2022-12-18T05:32:44;-8.10;99.90
49465;DHT22;35358;49.342;8.802;2022-12-18T05:35:10;-8.10;99.90
49465;DHT22;35358;49.342;8.802;2022-12-18T05:37:38;-8.10;99.90
49465;DHT22;35358;49.342;8.802;2022-12-18T05:40:04;-8.00;99.90
49465;DHT22;35358;49.342;8.802;2022-12-18T05:42:31;-7.90;99.90
49465;DHT22;35358;49.342;8.802;2022-12-18T05:44:56;-7.50;99.90
49465;DHT22;35358;49.342;8.802;2022-12-18T05:47:22;-7.30;99.90
49465;DHT22;35358;49.342;8.802;2022-12-18T05:49:47;-7.20;99.90
49465;DHT22;35358;49.342;8.802;2022-12-18T05:52:13;-7.10;99.90
49465;DHT22;35358;49.342;8.802;2022-12-18T05:54:41;-6.90;99.90
49465;DHT22;35358;49.342;8.802;2022-12-18T05:57:09;-6.90;99.90
49465;DHT22;35358;49.342;8.802;2022-12-18T05:59:39;-6.80;99.90
49465;DHT22;35358;49.342;8.802;2022-12-18T06:02:05;-6.70;99.90
49465;DHT22;35358;49.342;8.802;2022-12-18T06:04:32;-6.70;99.90
49465;DHT22;35358;49.342;8.802;2022-12-18T06:06:58;-6.70;99.90
49465;DHT22;35358;49.342;8.802;2022-12-18T06:09:24;-6.60;99.90
49465;DHT22;35358;49.342;8.802;2022-12-18T06:11:52;-6.60;99.90
49465;DHT22;35358;49.342;8.802;2022-12-18T06:14:18;-6.60;99.90
49465;DHT22;35358;49.342;8.802;2022-12-18T06:16:43;-6.50;99.90
49465;DHT22;35358;49.342;8.802;2022-12-18T06:19:15;-6.50;99.90
49465;DHT22;35358;49.342;8.802;2022-12-18T06:21:41;-6.50;99.90
49465;DHT22;35358;49.342;8.802;2022-12-18T06:24:07;-6.50;99.90
49465;DHT22;35358;49.342;8.802;2022-12-18T06:26:33;-6.50;99.90
49465;DHT22;35358;49.342;8.802;2022-12-18T06:28:58;-6.50;99.90
49465;DHT22;35358;49.342;8.802;2022-12-18T06:31:28;-6.50;99.90
49465;DHT22;35358;49.342;8.802;2022-12-18T06:33:56;-6.60;99.90
49465;DHT22;35358;49.342;8.802;2022-12-18T06:36:22;-6.50;99.90
49465;DHT22;35358;49.342;8.802;2022-12-18T06:38:50;-6.50;99.90
49465;DHT22;35358;49.342;8.802;2022-12-18T06:41:20;-6.60;99.90
49465;DHT22;35358;49.342;8.802;2022-12-18T06:43:48;-6.60;99.90
49465;DHT22;35358;49.342;8.802;2022-12-18T06:46:18;-6.60;99.90
49465;DHT22;35358;49.342;8.802;2022-12-18T06:48:47;-6.60;99.90
49465;DHT22;35358;49.342;8.802;2022-12-18T06:51:22;-6.50;99.90
49465;DHT22;35358;49.342;8.802;2022-12-18T06:53:50;-6.60;99.90
49465;DHT22;35358;49.342;8.802;2022-12-18T06:56:16;-6.50;99.90
49465;DHT22;35358;49.342;8.802;2022-12-18T06:58:41;-6.60;99.90
49465;DHT22;35358;49.342;8.802;2022-12-18T07:01:11;-6.60;99.90
49465;DHT22;35358;49.342;8.802;2022-12-18T07:03:40;-6.60;99.90
49465;DHT22;35358;49.342;8.802;2022-12-18T07:06:11;-6.70;99.90
49465;DHT22;35358;49.342;8.802;2022-12-18T07:08:37;-6.60;99.90
49465;DHT22;35358;49.342;8.802;2022-12-18T07:11:04;-6.70;99.90
49465;DHT22;35358;49.342;8.802;2022-12-18T07:13:30;-6.70;99.90
49465;DHT22;35358;49.342;8.802;2022-12-18T07:16:03;-6.80;99.90
49465;DHT22;35358;49.342;8.802;2022-12-18T07:18:31;-6.70;99.90
49465;DHT22;35358;49.342;8.802;2022-12-18T07:20:57;-6.70;99.90
49465;DHT22;35358;49.342;8.802;2022-12-18T07:23:22;-6.80;99.90
49465;DHT22;35358;49.342;8.802;2022-12-18T07:25:48;-6.70;99.90
49465;DHT22;35358;49.342;8.802;2022-12-18T07:28:13;-6.70;99.90
49465;DHT22;35358;49.342;8.802;2022-12-18T07:30:40;-6.80;99.90
49465;DHT22;35358;49.342;8.802;2022-12-18T07:33:05;-6.80;99.90
49465;DHT22;35358;49.342;8.802;2022-12-18T07:35:36;-6.80;99.90
49465;DHT22;35358;49.342;8.802;2022-12-18T07:38:02;-6.80;99.90
49465;DHT22;35358;49.342;8.802;2022-12-18T07:40:30;-6.70;99.90
49465;DHT22;35358;49.342;8.802;2022-12-18T07:42:55;-6.70;99.90
49465;DHT22;35358;49.342;8.802;2022-12-18T07:45:23;-6.80;99.90
49465;DHT22;35358;49.342;8.802;2022-12-18T07:47:48;-6.80;99.90
49465;DHT22;35358;49.342;8.802;2022-12-18T07:50:14;-6.80;99.90
49465;DHT22;35358;49.342;8.802;2022-12-18T07:52:44;-6.80;99.90
49465;DHT22;35358;49.342;8.802;2022-12-18T07:55:12;-6.70;99.90
49465;DHT22;35358;49.342;8.802;2022-12-18T07:57:37;-6.70;99.90
49465;DHT22;35358;49.342;8.802;2022-12-18T08:00:06;-6.60;99.90
49465;DHT22;35358;49.342;8.802;2022-12-18T08:02:32;-6.70;99.90
49465;DHT22;35358;49.342;8.802;2022-12-18T08:04:57;-6.70;99.90
49465;DHT22;35358;49.342;8.802;2022-12-18T08:07:23;-6.70;99.90
49465;DHT22;35358;49.342;8.802;2022-12-18T08:09:49;-6.70;99.90
49465;DHT22;35358;49.342;8.802;2022-12-18T08:12:15;-6.70;99.90
49465;DHT22;35358;49.342;8.802;2022-12-18T08:14:40;-6.60;99.90
49465;DHT22;35358;49.342;8.802;2022-12-18T08:17:06;-6.50;99.90
49465;DHT22;35358;49.342;8.802;2022-12-18T08:19:34;-6.40;99.90
49465;DHT22;35358;49.342;8.802;2022-12-18T08:22:00;-6.40;99.90
49465;DHT22;35358;49.342;8.802;2022-12-18T08:24:25;-6.40;99.90
49465;DHT22;35358;49.342;8.802;2022-12-18T08:26:51;-6.40;99.90
49465;DHT22;35358;49.342;8.802;2022-12-18T08:29:19;-6.50;99.90
49465;DHT22;35358;49.342;8.802;2022-12-18T08:31:47;-6.50;99.90
49465;DHT22;35358;49.342;8.802;2022-12-18T08:34:12;-6.30;99.90
49465;DHT22;35358;49.342;8.802;2022-12-18T08:36:40;-6.40;99.90
49465;DHT22;35358;49.342;8.802;2022-12-18T08:39:06;-6.30;99.90
49465;DHT22;35358;49.342;8.802;2022-12-18T08:41:34;-6.20;99.90
49465;DHT22;35358;49.342;8.802;2022-12-18T08:43:59;-6.30;99.90
49465;DHT22;35358;49.342;8.802;2022-12-18T08:46:46;-6.10;99.90
49465;DHT22;35358;49.342;8.802;2022-12-18T08:49:11;-6.20;99.90
49465;DHT22;35358;49.342;8.802;2022-12-18T08:51:38;-6.10;99.90
49465;DHT22;35358;49.342;8.802;2022-12-18T08:54:06;-6.10;99.90
49465;DHT22;35358;49.342;8.802;2022-12-18T08:56:32;-6.10;99.90
49465;DHT22;35358;49.342;8.802;2022-12-18T08:59:01;-6.00;99.90
49465;DHT22;35358;49.342;8.802;2022-12-18T09:01:26;-6.10;99.90
49465;DHT22;35358;49.342;8.802;2022-12-18T09:03:54;-6.10;99.90
49465;DHT22;35358;49.342;8.802;2022-12-18T09:06:21;-5.90;99.90
49465;DHT22;35358;49.342;8.802;2022-12-18T09:08:48;-5.70;99.90
49465;DHT22;35358;49.342;8.802;2022-12-18T09:13:48;-5.80;99.90
49465;DHT22;35358;49.342;8.802;2022-12-18T09:16:14;-5.80;99.90
49465;DHT22;35358;49.342;8.802;2022-12-18T09:18:39;-5.80;99.90
49465;DHT22;35358;49.342;8.802;2022-12-18T09:21:13;-5.70;99.90
49465;DHT22;35358;49.342;8.802;2022-12-18T09:23:42;-5.70;99.90
49465;DHT22;35358;49.342;8.802;2022-12-18T09:26:10;-5.50;99.90
49465;DHT22;35358;49.342;8.802;2022-12-18T09:28:38;-5.40;99.90
49465;DHT22;35358;49.342;8.802;2022-12-18T09:31:06;-5.30;99.90
49465;DHT22;35358;49.342;8.802;2022-12-18T09:33:35;-5.40;99.90
49465;DHT22;35358;49.342;8.802;2022-12-18T09:36:04;-5.30;99.90
49465;DHT22;35358;49.342;8.802;2022-12-18T09:38:34;-5.40;99.90
49465;DHT22;35358;49.342;8.802;2022-12-18T09:41:54;-5.50;99.90
49465;DHT22;35358;49.342;8.802;2022-12-18T09:44:40;-5.40;99.90
49465;DHT22;35358;49.342;8.802;2022-12-18T09:50:00;-5.20;99.90
49465;DHT22;35358;49.342;8.802;2022-12-18T09:52:35;-5.20;99.90
49465;DHT22;35358;49.342;8.802;2022-12-18T09:58:00;-5.20;99.90
49465;DHT22;35358;49.342;8.802;2022-12-18T10:00:30;-5.00;99.90
49465;DHT22;35358;49.342;8.802;2022-12-18T10:03:10;-5.00;99.90
49465;DHT22;35358;49.342;8.802;2022-12-18T10:11:03;-4.60;99.90
49465;DHT22;35358;49.342;8.802;2022-12-18T10:13:44;-4.70;99.90
49465;DHT22;35358;49.342;8.802;2022-12-18T10:16:34;-4.60;99.90
49465;DHT22;35358;49.342;8.802;2022-12-18T10:19:05;-4.40;99.90
49465;DHT22;35358;49.342;8.802;2022-12-18T10:24:35;-4.40;99.90
49465;DHT22;35358;49.342;8.802;2022-12-18T10:27:21;-4.40;99.90
49465;DHT22;35358;49.342;8.802;2022-12-18T10:29:50;-4.30;99.90
49465;DHT22;35358;49.342;8.802;2022-12-18T10:32:36;-4.20;99.90
49465;DHT22;35358;49.342;8.802;2022-12-18T10:35:04;-4.30;99.90
49465;DHT22;35358;49.342;8.802;2022-12-18T10:37:29;-4.10;99.90
49465;DHT22;35358;49.342;8.802;2022-12-18T10:40:13;-4.00;99.90
49465;DHT22;35358;49.342;8.802;2022-12-18T10:42:40;-4.10;99.90
49465;DHT22;35358;49.342;8.802;2022-12-18T10:45:13;-4.00;99.90
49465;DHT22;35358;49.342;8.802;2022-12-18T10:47:46;-3.90;99.90
49465;DHT22;35358;49.342;8.802;2022-12-18T10:50:37;-3.70;99.90
49465;DHT22;35358;49.342;8.802;2022-12-18T10:53:05;-3.50;99.90
49465;DHT22;35358;49.342;8.802;2022-12-18T10:55:33;-3.40;99.90
49465;DHT22;35358;49.342;8.802;2022-12-18T10:58:29;-3.50;99.90
49465;DHT22;35358;49.342;8.802;2022-12-18T11:01:17;-3.50;99.90
49465;DHT22;35358;49.342;8.802;2022-12-18T11:06:17;-3.50;99.90
49465;DHT22;35358;49.342;8.802;2022-12-18T11:08:44;-3.50;99.90
49465;DHT22;35358;49.342;8.802;2022-12-18T11:11:25;-3.60;99.90
49465;DHT22;35358;49.342;8.802;2022-12-18T11:14:03;-3.40;99.90
49465;DHT22;35358;49.342;8.802;2022-12-18T11:16:44;-3.50;99.90
49465;DHT22;35358;49.342;8.802;2022-12-18T11:21:44;-3.40;99.90
49465;DHT22;35358;49.342;8.802;2022-12-18T11:24:33;-3.30;99.90
49465;DHT22;35358;49.342;8.802;2022-12-18T11:27:04;-3.20;99.90
49465;DHT22;35358;49.342;8.802;2022-12-18T11:29:35;-3.00;99.90
49465;DHT22;35358;49.342;8.802;2022-12-18T11:32:40;-3.10;99.90
49465;DHT22;35358;49.342;8.802;2022-12-18T11:35:22;-3.10;99.90
49465;DHT22;35358;49.342;8.802;2022-12-18T11:37:59;-2.90;99.90
49465;DHT22;35358;49.342;8.802;2022-12-18T11:40:36;-2.70;99.90
49465;DHT22;35358;49.342;8.802;2022-12-18T11:46:08;-2.90;99.90
49465;DHT22;35358;49.342;8.802;2022-12-18T11:48:52;-2.70;99.90
49465;DHT22;35358;49.342;8.802;2022-12-18T11:51:34;-2.60;99.90
49465;DHT22;35358;49.342;8.802;2022-12-18T11:54:13;-2.40;99.90
49465;DHT22;35358;49.342;8.802;2022-12-18T11:56:58;-2.50;99.90
49465;DHT22;35358;49.342;8.802;2022-12-18T12:18:51;-2.20;99.90
49465;DHT22;35358;49.342;8.802;2022-12-18T12:40:35;-1.90;99.90
49465;DHT22;35358;49.342;8.802;2022-12-18T12:46:06;-2.00;99.90
49465;DHT22;35358;49.342;8.802;2022-12-18T12:48:44;-1.90;99.90
49465;DHT22;35358;49.342;8.802;2022-12-18T12:51:21;-2.00;99.90
49465;DHT22;35358;49.342;8.802;2022-12-18T12:53:48;-2.00;99.90
49465;DHT22;35358;49.342;8.802;2022-12-18T12:56:21;-1.90;99.90
49465;DHT22;35358;49.342;8.802;2022-12-18T13:06:47;-2.10;99.90
49465;DHT22;35358;49.342;8.802;2022-12-18T13:09:15;-2.10;99.90
49465;DHT22;35358;49.342;8.802;2022-12-18T13:11:42;-1.80;99.90
49465;DHT22;35358;49.342;8.802;2022-12-18T13:14:40;-0.90;99.90
49465;DHT22;35358;49.342;8.802;2022-12-18T13:17:35;-0.90;99.90
49465;DHT22;35358;49.342;8.802;2022-12-18T13:24:59;-0.30;99.90
49465;DHT22;35358;49.342;8.802;2022-12-18T13:35:42;-1.20;99.90
49465;DHT22;35358;49.342;8.802;2022-12-18T13:40:58;-1.60;99.90
49465;DHT22;35358;49.342;8.802;2022-12-18T13:46:17;-1.50;99.90
49465;DHT22;35358;49.342;8.802;2022-12-18T13:48:53;-1.60;99.90
49465;DHT22;35358;49.342;8.802;2022-12-18T13:51:23;-1.80;99.90
49465;DHT22;35358;49.342;8.802;2022-12-18T13:54:00;-1.70;99.90
49465;DHT22;35358;49.342;8.802;2022-12-18T13:56:28;-1.70;99.90
49465;DHT22;35358;49.342;8.802;2022-12-18T14:01:35;-1.80;99.90
49465;DHT22;35358;49.342;8.802;2022-12-18T14:04:12;-1.90;99.90
49465;DHT22;35358;49.342;8.802;2022-12-18T14:06:47;-1.90;99.90
49465;DHT22;35358;49.342;8.802;2022-12-18T14:09:16;-1.90;99.90
49465;DHT22;35358;49.342;8.802;2022-12-18T14:11:48;-1.80;99.90
49465;DHT22;35358;49.342;8.802;2022-12-18T14:14:20;-1.90;99.90
49465;DHT22;35358;49.342;8.802;2022-12-18T14:16:49;-1.80;99.90
49465;DHT22;35358;49.342;8.802;2022-12-18T14:19:17;-1.70;99.90
49465;DHT22;35358;49.342;8.802;2022-12-18T14:21:48;-1.90;99.90
49465;DHT22;35358;49.342;8.802;2022-12-18T14:24:21;-2.00;99.90
49465;DHT22;35358;49.342;8.802;2022-12-18T14:26:50;-2.00;99.90
49465;DHT22;35358;49.342;8.802;2022-12-18T14:29:26;-2.00;99.90
49465;DHT22;35358;49.342;8.802;2022-12-18T14:32:24;-2.00;99.90
49465;DHT22;35358;49.342;8.802;2022-12-18T14:34:53;-2.00;99.90
49465;DHT22;35358;49.342;8.802;2022-12-18T14:37:28;-2.00;99.90
49465;DHT22;35358;49.342;8.802;2022-12-18T14:39:57;-2.00;99.90
49465;DHT22;35358;49.342;8.802;2022-12-18T14:42:23;-2.10;99.90
49465;DHT22;35358;49.342;8.802;2022-12-18T14:47:58;-2.10;99.90
49465;DHT22;35358;49.342;8.802;2022-12-18T14:50:24;-2.10;99.90
49465;DHT22;35358;49.342;8.802;2022-12-18T14:52:52;-2.10;99.90
49465;DHT22;35358;49.342;8.802;2022-12-18T14:55:19;-2.20;99.90
49465;DHT22;35358;49.342;8.802;2022-12-18T14:57:50;-2.20;99.90
49465;DHT22;35358;49.342;8.802;2022-12-18T15:00:20;-2.30;99.90
49465;DHT22;35358;49.342;8.802;2022-12-18T15:02:55;-2.30;99.90
49465;DHT22;35358;49.342;8.802;2022-12-18T15:05:26;-2.30;99.90
49465;DHT22;35358;49.342;8.802;2022-12-18T15:07:57;-2.40;99.90
49465;DHT22;35358;49.342;8.802;2022-12-18T15:10:28;-2.30;99.90
49465;DHT22;35358;49.342;8.802;2022-12-18T15:26:01;-2.60;99.90
49465;DHT22;35358;49.342;8.802;2022-12-18T15:28:37;-2.60;99.90
49465;DHT22;35358;49.342;8.802;2022-12-18T15:31:30;-2.60;99.90
49465;DHT22;35358;49.342;8.802;2022-12-18T15:36:23;-2.60;99.90
49465;DHT22;35358;49.342;8.802;2022-12-18T15:38:56;-2.70;99.90
49465;DHT22;35358;49.342;8.802;2022-12-18T15:41:24;-2.70;99.90
49465;DHT22;35358;49.342;8.802;2022-12-18T15:43:52;-2.60;99.90
49465;DHT22;35358;49.342;8.802;2022-12-18T15:46:25;-2.60;99.90
49465;DHT22;35358;49.342;8.802;2022-12-18T15:48:55;-2.70;99.90
49465;DHT22;35358;49.342;8.802;2022-12-18T15:51:53;-2.80;99.90
49465;DHT22;35358;49.342;8.802;2022-12-18T15:54:19;-2.80;99.90
49465;DHT22;35358;49.342;8.802;2022-12-18T15:57:04;-2.80;99.90
49465;DHT22;35358;49.342;8.802;2022-12-18T15:59:52;-2.80;99.90
49465;DHT22;35358;49.342;8.802;2022-12-18T16:02:19;-2.70;99.90
49465;DHT22;35358;49.342;8.802;2022-12-18T16:04:48;-2.70;99.90
49465;DHT22;35358;49.342;8.802;2022-12-18T16:07:17;-2.70;99.90
49465;DHT22;35358;49.342;8.802;2022-12-18T16:09:48;-2.80;99.90
49465;DHT22;35358;49.342;8.802;2022-12-18T16:12:19;-2.70;99.90
49465;DHT22;35358;49.342;8.802;2022-12-18T16:14:48;-2.70;99.90
49465;DHT22;35358;49.342;8.802;2022-12-18T16:17:14;-2.70;99.90
49465;DHT22;35358;49.342;8.802;2022-12-18T16:19:47;-2.70;99.90
49465;DHT22;35358;49.342;8.802;2022-12-18T16:22:20;-2.70;99.90
49465;DHT22;35358;49.342;8.802;2022-12-18T16:24:46;-2.60;99.90
49465;DHT22;35358;49.342;8.802;2022-12-18T16:27:12;-2.60;99.90
49465;DHT22;35358;49.342;8.802;2022-12-18T16:29:40;-2.60;99.90
49465;DHT22;35358;49.342;8.802;2022-12-18T16:32:05;-2.50;99.90
49465;DHT22;35358;49.342;8.802;2022-12-18T16:34:36;-2.60;99.90
49465;DHT22;35358;49.342;8.802;2022-12-18T16:37:07;-2.60;99.90
49465;DHT22;35358;49.342;8.802;2022-12-18T16:39:36;-2.60;99.90
49465;DHT22;35358;49.342;8.802;2022-12-18T16:42:14;-2.60;99.90
49465;DHT22;35358;49.342;8.802;2022-12-18T16:44:42;-2.50;99.90
49465;DHT22;35358;49.342;8.802;2022-12-18T16:47:08;-2.50;99.90
49465;DHT22;35358;49.342;8.802;2022-12-18T16:49:33;-2.50;99.90
49465;DHT22;35358;49.342;8.802;2022-12-18T16:52:03;-2.50;99.90
49465;DHT22;35358;49.342;8.802;2022-12-18T16:54:29;-2.50;99.90
49465;DHT22;35358;49.342;8.802;2022-12-18T16:56:56;-2.50;99.90
49465;DHT22;35358;49.342;8.802;2022-12-18T16:59:25;-2.50;99.90
49465;DHT22;35358;49.342;8.802;2022-12-18T17:01:53;-2.40;99.90
49465;DHT22;35358;49.342;8.802;2022-12-18T17:04:22;-2.50;99.90
49465;DHT22;35358;49.342;8.802;2022-12-18T17:06:48;-2.40;99.90
49465;DHT22;35358;49.342;8.802;2022-12-18T17:09:17;-2.40;99.90
49465;DHT22;35358;49.342;8.802;2022-12-18T17:11:44;-2.30;99.90
49465;DHT22;35358;49.342;8.802;2022-12-18T17:14:15;-2.40;99.90
49465;DHT22;35358;49.342;8.802;2022-12-18T17:16:41;-2.40;99.90
49465;DHT22;35358;49.342;8.802;2022-12-18T17:19:09;-2.40;99.90
49465;DHT22;35358;49.342;8.802;2022-12-18T17:21:35;-2.50;99.90
49465;DHT22;35358;49.342;8.802;2022-12-18T17:24:01;-2.50;99.90
49465;DHT22;35358;49.342;8.802;2022-12-18T17:26:27;-2.40;99.90
49465;DHT22;35358;49.342;8.802;2022-12-18T17:28:55;-2.50;99.90
49465;DHT22;35358;49.342;8.802;2022-12-18T17:31:22;-2.40;99.90
49465;DHT22;35358;49.342;8.802;2022-12-18T17:33:50;-2.40;99.90
49465;DHT22;35358;49.342;8.802;2022-12-18T17:36:19;-2.40;99.90
49465;DHT22;35358;49.342;8.802;2022-12-18T17:38:55;-2.30;99.90
49465;DHT22;35358;49.342;8.802;2022-12-18T17:41:21;-2.40;99.90
49465;DHT22;35358;49.342;8.802;2022-12-18T17:43:53;-2.40;99.90
49465;DHT22;35358;49.342;8.802;2022-12-18T17:46:20;-2.50;99.90
49465;DHT22;35358;49.342;8.802;2022-12-18T17:48:46;-2.50;99.90
49465;DHT22;35358;49.342;8.802;2022-12-18T17:51:12;-2.50;99.90
49465;DHT22;35358;49.342;8.802;2022-12-18T17:53:39;-2.50;99.90
49465;DHT22;35358;49.342;8.802;2022-12-18T17:56:05;-2.60;99.90
49465;DHT22;35358;49.342;8.802;2022-12-18T17:58:32;-2.60;99.90
49465;DHT22;35358;49.342;8.802;2022-12-18T18:01:00;-2.60;99.90
49465;DHT22;35358;49.342;8.802;2022-12-18T18:03:26;-2.60;99.90
49465;DHT22;35358;49.342;8.802;2022-12-18T18:05:59;-2.60;99.90
49465;DHT22;35358;49.342;8.802;2022-12-18T18:08:26;-2.60;99.90
49465;DHT22;35358;49.342;8.802;2022-12-18T18:10:52;-2.60;99.90
49465;DHT22;35358;49.342;8.802;2022-12-18T18:13:23;-2.60;99.90
49465;DHT22;35358;49.342;8.802;2022-12-18T18:16:09;-2.50;99.90